sensor_id;sensor_type;location;lat;lon;timestamp;P1;durP1;ratioP1;P2;durP2;ratioP2
16870;SDS011;8552;48.120;-1.456;2024-02-21T00:01:45;2.90;;;2.08;;
16870;SDS011;8552;48.120;-1.456;2024-02-21T00:04:11;2.92;;;2.10;;
16870;SDS011;8552;48.120;-1.456;2024-02-21T00:06:37;4.68;;;2.28;;
16870;SDS011;8552;48.120;-1.456;2024-02-21T00:09:03;3.13;;;2.45;;
16870;SDS011;8552;48.120;-1.456;2024-02-21T00:11:29;2.15;;;1.95;;
16870;SDS011;8552;48.120;-1.456;2024-02-21T00:13:55;7.05;;;2.22;;
16870;SDS011;8552;48.120;-1.456;2024-02-21T00:16:21;3.42;;;1.95;;
16870;SDS011;8552;48.120;-1.456;2024-02-21T00:18:47;3.85;;;1.90;;
16870;SDS011;8552;48.120;-1.456;2024-02-21T00:21:13;9.27;;;1.90;;
16870;SDS011;8552;48.120;-1.456;2024-02-21T00:23:43;3.55;;;2.55;;
16870;SDS011;8552;48.120;-1.456;2024-02-21T00:26:11;3.90;;;2.00;;
16870;SDS011;8552;48.120;-1.456;2024-02-21T00:28:38;7.57;;;2.25;;
16870;SDS011;8552;48.120;-1.456;2024-02-21T00:31:04;3.53;;;1.67;;
16870;SDS011;8552;48.120;-1.456;2024-02-21T00:33:30;3.05;;;2.30;;
16870;SDS011;8552;48.120;-1.456;2024-02-21T00:35:56;2.53;;;1.92;;
16870;SDS011;8552;48.120;-1.456;2024-02-21T00:38:22;5.13;;;2.20;;
16870;SDS011;8552;48.120;-1.456;2024-02-21T00:40:48;3.20;;;2.17;;
16870;SDS011;8552;48.120;-1.456;2024-02-21T00:43:14;3.70;;;1.95;;
16870;SDS011;8552;48.120;-1.456;2024-02-21T00:45:40;3.20;;;2.17;;
16870;SDS011;8552;48.120;-1.456;2024-02-21T00:48:06;2.90;;;2.13;;
16870;SDS011;8552;48.120;-1.456;2024-02-21T00:50:33;4.32;;;2.65;;
16870;SDS011;8552;48.120;-1.456;2024-02-21T00:52:59;2.92;;;2.40;;
16870;SDS011;8552;48.120;-1.456;2024-02-21T00:55:24;3.53;;;2.40;;
16870;SDS011;8552;48.120;-1.456;2024-02-21T00:57:50;4.65;;;2.50;;
16870;SDS011;8552;48.120;-1.456;2024-02-21T01:00:17;3.97;;;2.88;;
16870;SDS011;8552;48.120;-1.456;2024-02-21T01:02:43;4.63;;;2.55;;
16870;SDS011;8552;48.120;-1.456;2024-02-21T01:05:09;5.53;;;2.85;;
16870;SDS011;8552;48.120;-1.456;2024-02-21T01:07:35;3.28;;;2.38;;
16870;SDS011;8552;48.120;-1.456;2024-02-21T01:10:01;4.38;;;2.63;;
16870;SDS011;8552;48.120;-1.456;2024-02-21T01:12:27;7.03;;;3.10;;
16870;SDS011;8552;48.120;-1.456;2024-02-21T01:14:53;7.15;;;3.35;;
16870;SDS011;8552;48.120;-1.456;2024-02-21T01:17:19;5.25;;;3.28;;
16870;SDS011;8552;48.120;-1.456;2024-02-21T01:19:46;6.55;;;2.90;;
16870;SDS011;8552;48.120;-1.456;2024-02-21T01:22:12;6.28;;;4.15;;
16870;SDS011;8552;48.120;-1.456;2024-02-21T01:24:38;4.38;;;3.28;;
16870;SDS011;8552;48.120;-1.456;2024-02-21T01:27:04;6.47;;;3.47;;
16870;SDS011;8552;48.120;-1.456;2024-02-21T01:29:30;4.55;;;3.38;;
16870;SDS011;8552;48.120;-1.456;2024-02-21T01:31:56;5.03;;;3.30;;
16870;SDS011;8552;48.120;-1.456;2024-02-21T01:34:22;4.70;;;3.60;;
16870;SDS011;8552;48.120;-1.456;2024-02-21T01:36:48;7.30;;;3.50;;
16870;SDS011;8552;48.120;-1.456;2024-02-21T01:39:14;5.50;;;3.47;;
16870;SDS011;8552;48.120;-1.456;2024-02-21T01:41:40;5.20;;;3.20;;
16870;SDS011;8552;48.120;-1.456;2024-02-21T01:44:06;6.70;;;4.03;;
16870;SDS011;8552;48.120;-1.456;2024-02-21T01:46:32;8.25;;;3.70;;
16870;SDS011;8552;48.120;-1.456;2024-02-21T01:48:59;6.10;;;3.92;;
16870;SDS011;8552;48.120;-1.456;2024-02-21T01:51:25;6.28;;;3.72;;
16870;SDS011;8552;48.120;-1.456;2024-02-21T01:53:51;8.82;;;3.83;;
16870;SDS011;8552;48.120;-1.456;2024-02-21T01:56:18;4.90;;;3.63;;
16870;SDS011;8552;48.120;-1.456;2024-02-21T01:58:45;6.90;;;4.15;;
16870;SDS011;8552;48.120;-1.456;2024-02-21T02:01:12;5.95;;;3.55;;
16870;SDS011;8552;48.120;-1.456;2024-02-21T02:03:38;6.25;;;4.00;;
16870;SDS011;8552;48.120;-1.456;2024-02-21T02:06:04;7.80;;;4.10;;
16870;SDS011;8552;48.120;-1.456;2024-02-21T02:08:31;5.82;;;3.78;;
16870;SDS011;8552;48.120;-1.456;2024-02-21T02:10:58;5.35;;;3.88;;
16870;SDS011;8552;48.120;-1.456;2024-02-21T02:13:24;6.32;;;3.72;;
16870;SDS011;8552;48.120;-1.456;2024-02-21T02:15:50;7.00;;;3.50;;
16870;SDS011;8552;48.120;-1.456;2024-02-21T02:18:17;4.63;;;3.33;;
16870;SDS011;8552;48.120;-1.456;2024-02-21T02:20:44;3.47;;;2.50;;
16870;SDS011;8552;48.120;-1.456;2024-02-21T02:23:12;6.05;;;3.22;;
16870;SDS011;8552;48.120;-1.456;2024-02-21T02:25:39;6.20;;;3.50;;
16870;SDS011;8552;48.120;-1.456;2024-02-21T02:28:06;5.45;;;2.75;;
16870;SDS011;8552;48.120;-1.456;2024-02-21T02:30:33;3.88;;;2.20;;
16870;SDS011;8552;48.120;-1.456;2024-02-21T02:33:01;3.65;;;2.92;;
16870;SDS011;8552;48.120;-1.456;2024-02-21T02:35:27;5.25;;;2.80;;
16870;SDS011;8552;48.120;-1.456;2024-02-21T02:37:53;9.27;;;2.70;;
16870;SDS011;8552;48.120;-1.456;2024-02-21T02:40:19;4.40;;;2.80;;
16870;SDS011;8552;48.120;-1.456;2024-02-21T02:42:45;10.25;;;3.00;;
16870;SDS011;8552;48.120;-1.456;2024-02-21T02:45:13;5.63;;;2.60;;
16870;SDS011;8552;48.120;-1.456;2024-02-21T02:47:39;5.22;;;2.95;;
16870;SDS011;8552;48.120;-1.456;2024-02-21T02:50:06;6.60;;;2.97;;
16870;SDS011;8552;48.120;-1.456;2024-02-21T02:52:32;5.20;;;3.20;;
16870;SDS011;8552;48.120;-1.456;2024-02-21T02:54:59;5.18;;;2.70;;
16870;SDS011;8552;48.120;-1.456;2024-02-21T02:57:26;4.53;;;2.92;;
16870;SDS011;8552;48.120;-1.456;2024-02-21T02:59:52;6.18;;;4.38;;
16870;SDS011;8552;48.120;-1.456;2024-02-21T03:02:18;7.20;;;3.58;;
16870;SDS011;8552;48.120;-1.456;2024-02-21T03:04:44;7.00;;;3.88;;
16870;SDS011;8552;48.120;-1.456;2024-02-21T03:07:11;5.10;;;3.15;;
16870;SDS011;8552;48.120;-1.456;2024-02-21T03:09:37;5.10;;;3.22;;
16870;SDS011;8552;48.120;-1.456;2024-02-21T03:12:04;5.88;;;3.88;;
16870;SDS011;8552;48.120;-1.456;2024-02-21T03:14:30;6.40;;;3.65;;
16870;SDS011;8552;48.120;-1.456;2024-02-21T03:16:56;3.42;;;2.35;;
16870;SDS011;8552;48.120;-1.456;2024-02-21T03:19:22;3.63;;;2.47;;
16870;SDS011;8552;48.120;-1.456;2024-02-21T03:21:51;5.78;;;2.67;;
16870;SDS011;8552;48.120;-1.456;2024-02-21T03:24:21;4.57;;;2.60;;
16870;SDS011;8552;48.120;-1.456;2024-02-21T03:26:47;6.72;;;2.85;;
16870;SDS011;8552;48.120;-1.456;2024-02-21T03:29:16;8.90;;;2.55;;
16870;SDS011;8552;48.120;-1.456;2024-02-21T03:31:42;3.15;;;2.53;;
16870;SDS011;8552;48.120;-1.456;2024-02-21T03:34:11;5.10;;;2.38;;
16870;SDS011;8552;48.120;-1.456;2024-02-21T03:36:37;3.75;;;2.50;;
16870;SDS011;8552;48.120;-1.456;2024-02-21T03:39:03;5.13;;;2.70;;
16870;SDS011;8552;48.120;-1.456;2024-02-21T03:41:30;4.72;;;2.60;;
16870;SDS011;8552;48.120;-1.456;2024-02-21T03:43:56;6.20;;;2.83;;
16870;SDS011;8552;48.120;-1.456;2024-02-21T03:46:23;3.85;;;2.63;;
16870;SDS011;8552;48.120;-1.456;2024-02-21T03:48:50;3.20;;;2.13;;
16870;SDS011;8552;48.120;-1.456;2024-02-21T03:51:16;6.05;;;2.92;;
16870;SDS011;8552;48.120;-1.456;2024-02-21T03:53:42;5.90;;;2.70;;
16870;SDS011;8552;48.120;-1.456;2024-02-21T03:56:08;3.90;;;2.60;;
16870;SDS011;8552;48.120;-1.456;2024-02-21T03:58:34;5.75;;;2.63;;
16870;SDS011;8552;48.120;-1.456;2024-02-21T04:01:00;5.03;;;3.03;;
16870;SDS011;8552;48.120;-1.456;2024-02-21T04:03:27;5.28;;;2.53;;
16870;SDS011;8552;48.120;-1.456;2024-02-21T04:05:53;5.07;;;2.30;;
16870;SDS011;8552;48.120;-1.456;2024-02-21T04:08:19;3.92;;;2.40;;
16870;SDS011;8552;48.120;-1.456;2024-02-21T04:10:45;3.90;;;2.25;;
16870;SDS011;8552;48.120;-1.456;2024-02-21T04:13:11;5.47;;;2.28;;
16870;SDS011;8552;48.120;-1.456;2024-02-21T04:15:37;6.82;;;2.42;;
16870;SDS011;8552;48.120;-1.456;2024-02-21T04:18:03;6.97;;;2.88;;
16870;SDS011;8552;48.120;-1.456;2024-02-21T04:20:29;5.43;;;2.67;;
16870;SDS011;8552;48.120;-1.456;2024-02-21T04:22:55;9.13;;;2.50;;
16870;SDS011;8552;48.120;-1.456;2024-02-21T04:25:22;5.32;;;3.03;;
16870;SDS011;8552;48.120;-1.456;2024-02-21T04:27:48;3.20;;;2.30;;
16870;SDS011;8552;48.120;-1.456;2024-02-21T04:30:14;5.80;;;2.47;;
16870;SDS011;8552;48.120;-1.456;2024-02-21T04:32:40;5.93;;;2.40;;
16870;SDS011;8552;48.120;-1.456;2024-02-21T04:35:07;5.15;;;2.55;;
16870;SDS011;8552;48.120;-1.456;2024-02-21T04:37:33;3.88;;;2.42;;
16870;SDS011;8552;48.120;-1.456;2024-02-21T04:39:59;5.80;;;2.45;;
16870;SDS011;8552;48.120;-1.456;2024-02-21T04:42:25;4.05;;;2.40;;
16870;SDS011;8552;48.120;-1.456;2024-02-21T04:44:51;3.97;;;2.15;;
16870;SDS011;8552;48.120;-1.456;2024-02-21T04:47:17;6.13;;;2.30;;
16870;SDS011;8552;48.120;-1.456;2024-02-21T04:49:44;5.10;;;2.40;;
16870;SDS011;8552;48.120;-1.456;2024-02-21T04:52:11;4.65;;;2.30;;
16870;SDS011;8552;48.120;-1.456;2024-02-21T04:54:37;4.82;;;2.88;;
16870;SDS011;8552;48.120;-1.456;2024-02-21T04:57:03;4.88;;;2.50;;
16870;SDS011;8552;48.120;-1.456;2024-02-21T04:59:29;4.55;;;2.03;;
16870;SDS011;8552;48.120;-1.456;2024-02-21T05:01:55;3.25;;;1.85;;
16870;SDS011;8552;48.120;-1.456;2024-02-21T05:04:21;4.57;;;2.20;;
16870;SDS011;8552;48.120;-1.456;2024-02-21T05:06:47;5.05;;;2.00;;
16870;SDS011;8552;48.120;-1.456;2024-02-21T05:09:13;5.60;;;2.63;;
16870;SDS011;8552;48.120;-1.456;2024-02-21T05:11:39;3.53;;;1.90;;
16870;SDS011;8552;48.120;-1.456;2024-02-21T05:14:05;2.92;;;1.77;;
16870;SDS011;8552;48.120;-1.456;2024-02-21T05:16:32;3.38;;;2.15;;
16870;SDS011;8552;48.120;-1.456;2024-02-21T05:18:58;3.60;;;2.17;;
16870;SDS011;8552;48.120;-1.456;2024-02-21T05:21:24;3.88;;;2.05;;
16870;SDS011;8552;48.120;-1.456;2024-02-21T05:23:50;4.85;;;2.42;;
16870;SDS011;8552;48.120;-1.456;2024-02-21T05:26:20;3.80;;;1.98;;
16870;SDS011;8552;48.120;-1.456;2024-02-21T05:28:47;5.63;;;1.88;;
16870;SDS011;8552;48.120;-1.456;2024-02-21T05:31:13;4.20;;;2.22;;
16870;SDS011;8552;48.120;-1.456;2024-02-21T05:33:39;6.15;;;2.38;;
16870;SDS011;8552;48.120;-1.456;2024-02-21T05:36:05;2.47;;;2.10;;
16870;SDS011;8552;48.120;-1.456;2024-02-21T05:38:32;4.53;;;2.00;;
16870;SDS011;8552;48.120;-1.456;2024-02-21T05:40:58;4.38;;;2.30;;
16870;SDS011;8552;48.120;-1.456;2024-02-21T05:43:24;4.97;;;2.33;;
16870;SDS011;8552;48.120;-1.456;2024-02-21T05:45:50;3.05;;;2.55;;
16870;SDS011;8552;48.120;-1.456;2024-02-21T05:48:16;3.28;;;2.28;;
16870;SDS011;8552;48.120;-1.456;2024-02-21T05:50:42;3.78;;;2.30;;
16870;SDS011;8552;48.120;-1.456;2024-02-21T05:53:08;2.75;;;2.13;;
16870;SDS011;8552;48.120;-1.456;2024-02-21T05:55:35;3.60;;;2.47;;
16870;SDS011;8552;48.120;-1.456;2024-02-21T05:58:01;7.88;;;2.50;;
16870;SDS011;8552;48.120;-1.456;2024-02-21T06:00:27;3.72;;;2.50;;
16870;SDS011;8552;48.120;-1.456;2024-02-21T06:02:54;3.85;;;2.15;;
16870;SDS011;8552;48.120;-1.456;2024-02-21T06:05:20;4.20;;;2.38;;
16870;SDS011;8552;48.120;-1.456;2024-02-21T06:07:46;3.80;;;2.67;;
16870;SDS011;8552;48.120;-1.456;2024-02-21T06:10:12;2.65;;;2.13;;
16870;SDS011;8552;48.120;-1.456;2024-02-21T06:12:41;5.00;;;2.83;;
16870;SDS011;8552;48.120;-1.456;2024-02-21T06:15:07;3.60;;;2.10;;
16870;SDS011;8552;48.120;-1.456;2024-02-21T06:17:33;6.40;;;3.40;;
16870;SDS011;8552;48.120;-1.456;2024-02-21T06:19:59;3.70;;;2.58;;
16870;SDS011;8552;48.120;-1.456;2024-02-21T06:22:25;6.03;;;2.80;;
16870;SDS011;8552;48.120;-1.456;2024-02-21T06:24:51;6.53;;;2.78;;
16870;SDS011;8552;48.120;-1.456;2024-02-21T06:27:19;4.60;;;3.35;;
16870;SDS011;8552;48.120;-1.456;2024-02-21T06:29:45;5.43;;;3.40;;
16870;SDS011;8552;48.120;-1.456;2024-02-21T06:32:11;4.72;;;2.90;;
16870;SDS011;8552;48.120;-1.456;2024-02-21T06:34:37;6.38;;;3.33;;
16870;SDS011;8552;48.120;-1.456;2024-02-21T06:37:03;6.60;;;3.10;;
16870;SDS011;8552;48.120;-1.456;2024-02-21T06:39:29;3.88;;;2.67;;
16870;SDS011;8552;48.120;-1.456;2024-02-21T06:41:55;5.72;;;3.13;;
16870;SDS011;8552;48.120;-1.456;2024-02-21T06:44:21;5.78;;;3.53;;
16870;SDS011;8552;48.120;-1.456;2024-02-21T06:46:48;5.15;;;3.53;;
16870;SDS011;8552;48.120;-1.456;2024-02-21T06:49:14;7.10;;;3.40;;
16870;SDS011;8552;48.120;-1.456;2024-02-21T06:51:44;5.65;;;3.15;;
16870;SDS011;8552;48.120;-1.456;2024-02-21T06:54:10;8.10;;;4.07;;
16870;SDS011;8552;48.120;-1.456;2024-02-21T06:56:36;5.72;;;3.78;;
16870;SDS011;8552;48.120;-1.456;2024-02-21T06:59:03;8.93;;;3.88;;
16870;SDS011;8552;48.120;-1.456;2024-02-21T07:01:29;7.32;;;3.90;;
16870;SDS011;8552;48.120;-1.456;2024-02-21T07:03:56;5.57;;;3.33;;
16870;SDS011;8552;48.120;-1.456;2024-02-21T07:06:22;4.82;;;3.35;;
16870;SDS011;8552;48.120;-1.456;2024-02-21T07:08:48;7.97;;;4.18;;
16870;SDS011;8552;48.120;-1.456;2024-02-21T07:11:14;9.02;;;4.22;;
16870;SDS011;8552;48.120;-1.456;2024-02-21T07:13:40;8.38;;;4.10;;
16870;SDS011;8552;48.120;-1.456;2024-02-21T07:16:06;9.60;;;4.22;;
16870;SDS011;8552;48.120;-1.456;2024-02-21T07:18:33;10.65;;;4.40;;
16870;SDS011;8552;48.120;-1.456;2024-02-21T07:20:59;7.32;;;4.25;;
16870;SDS011;8552;48.120;-1.456;2024-02-21T07:23:25;7.82;;;5.05;;
16870;SDS011;8552;48.120;-1.456;2024-02-21T07:25:51;7.78;;;4.28;;
16870;SDS011;8552;48.120;-1.456;2024-02-21T07:28:17;7.75;;;4.30;;
16870;SDS011;8552;48.120;-1.456;2024-02-21T07:30:43;10.27;;;4.93;;
16870;SDS011;8552;48.120;-1.456;2024-02-21T07:33:09;11.32;;;4.30;;
16870;SDS011;8552;48.120;-1.456;2024-02-21T07:35:35;11.18;;;4.85;;
16870;SDS011;8552;48.120;-1.456;2024-02-21T07:38:06;7.50;;;4.75;;
16870;SDS011;8552;48.120;-1.456;2024-02-21T07:40:37;6.35;;;4.50;;
16870;SDS011;8552;48.120;-1.456;2024-02-21T07:43:03;10.93;;;5.35;;
16870;SDS011;8552;48.120;-1.456;2024-02-21T07:45:29;8.65;;;4.88;;
16870;SDS011;8552;48.120;-1.456;2024-02-21T07:47:55;7.97;;;4.88;;
16870;SDS011;8552;48.120;-1.456;2024-02-21T07:50:21;11.43;;;5.35;;
16870;SDS011;8552;48.120;-1.456;2024-02-21T07:52:47;9.52;;;5.38;;
16870;SDS011;8552;48.120;-1.456;2024-02-21T07:55:13;10.00;;;5.95;;
16870;SDS011;8552;48.120;-1.456;2024-02-21T07:57:39;9.45;;;6.07;;
16870;SDS011;8552;48.120;-1.456;2024-02-21T08:00:05;11.88;;;6.65;;
16870;SDS011;8552;48.120;-1.456;2024-02-21T08:02:34;12.07;;;7.57;;
16870;SDS011;8552;48.120;-1.456;2024-02-21T08:05:01;11.85;;;6.38;;
16870;SDS011;8552;48.120;-1.456;2024-02-21T08:07:30;12.77;;;6.15;;
16870;SDS011;8552;48.120;-1.456;2024-02-21T08:09:56;9.32;;;5.80;;
16870;SDS011;8552;48.120;-1.456;2024-02-21T08:12:22;9.80;;;6.32;;
16870;SDS011;8552;48.120;-1.456;2024-02-21T08:14:51;11.95;;;6.40;;
16870;SDS011;8552;48.120;-1.456;2024-02-21T08:17:17;15.52;;;6.07;;
16870;SDS011;8552;48.120;-1.456;2024-02-21T08:19:43;12.60;;;7.05;;
16870;SDS011;8552;48.120;-1.456;2024-02-21T08:22:09;13.27;;;6.75;;
16870;SDS011;8552;48.120;-1.456;2024-02-21T08:24:35;15.90;;;7.20;;
16870;SDS011;8552;48.120;-1.456;2024-02-21T08:27:01;15.35;;;7.85;;
16870;SDS011;8552;48.120;-1.456;2024-02-21T08:29:27;14.10;;;7.53;;
16870;SDS011;8552;48.120;-1.456;2024-02-21T08:31:56;13.10;;;7.28;;
16870;SDS011;8552;48.120;-1.456;2024-02-21T08:34:22;14.43;;;7.00;;
16870;SDS011;8552;48.120;-1.456;2024-02-21T08:36:48;13.85;;;7.75;;
16870;SDS011;8552;48.120;-1.456;2024-02-21T08:39:15;15.80;;;6.93;;
16870;SDS011;8552;48.120;-1.456;2024-02-21T08:41:42;13.70;;;7.45;;
16870;SDS011;8552;48.120;-1.456;2024-02-21T08:44:08;16.13;;;7.80;;
16870;SDS011;8552;48.120;-1.456;2024-02-21T08:46:37;17.55;;;7.68;;
16870;SDS011;8552;48.120;-1.456;2024-02-21T08:49:05;15.85;;;7.70;;
16870;SDS011;8552;48.120;-1.456;2024-02-21T08:51:34;16.17;;;8.10;;
16870;SDS011;8552;48.120;-1.456;2024-02-21T08:54:00;17.70;;;7.53;;
16870;SDS011;8552;48.120;-1.456;2024-02-21T08:56:29;17.17;;;7.43;;
16870;SDS011;8552;48.120;-1.456;2024-02-21T08:59:04;22.75;;;8.68;;
16870;SDS011;8552;48.120;-1.456;2024-02-21T09:01:30;21.23;;;8.73;;
16870;SDS011;8552;48.120;-1.456;2024-02-21T09:03:56;16.80;;;7.97;;
16870;SDS011;8552;48.120;-1.456;2024-02-21T09:06:22;14.15;;;9.43;;
16870;SDS011;8552;48.120;-1.456;2024-02-21T09:08:50;15.57;;;8.60;;
16870;SDS011;8552;48.120;-1.456;2024-02-21T09:11:17;17.55;;;9.88;;
16870;SDS011;8552;48.120;-1.456;2024-02-21T09:13:43;15.32;;;9.63;;
16870;SDS011;8552;48.120;-1.456;2024-02-21T09:16:09;25.17;;;10.55;;
16870;SDS011;8552;48.120;-1.456;2024-02-21T09:18:35;15.30;;;8.82;;
16870;SDS011;8552;48.120;-1.456;2024-02-21T09:21:04;17.63;;;10.85;;
16870;SDS011;8552;48.120;-1.456;2024-02-21T09:23:33;17.98;;;9.20;;
16870;SDS011;8552;48.120;-1.456;2024-02-21T09:25:59;12.73;;;8.60;;
16870;SDS011;8552;48.120;-1.456;2024-02-21T09:28:28;15.25;;;8.15;;
16870;SDS011;8552;48.120;-1.456;2024-02-21T09:30:54;17.08;;;7.88;;
16870;SDS011;8552;48.120;-1.456;2024-02-21T09:33:20;23.42;;;9.30;;
16870;SDS011;8552;48.120;-1.456;2024-02-21T09:35:46;19.92;;;9.13;;
16870;SDS011;8552;48.120;-1.456;2024-02-21T09:38:13;15.63;;;9.18;;
16870;SDS011;8552;48.120;-1.456;2024-02-21T09:40:39;13.80;;;8.60;;
16870;SDS011;8552;48.120;-1.456;2024-02-21T09:43:07;17.67;;;8.77;;
16870;SDS011;8552;48.120;-1.456;2024-02-21T09:45:33;17.92;;;8.77;;
16870;SDS011;8552;48.120;-1.456;2024-02-21T09:48:07;17.25;;;8.50;;
16870;SDS011;8552;48.120;-1.456;2024-02-21T09:50:39;21.08;;;9.43;;
16870;SDS011;8552;48.120;-1.456;2024-02-21T09:53:06;17.08;;;8.05;;
16870;SDS011;8552;48.120;-1.456;2024-02-21T09:55:32;24.48;;;9.23;;
16870;SDS011;8552;48.120;-1.456;2024-02-21T09:58:01;14.52;;;8.32;;
16870;SDS011;8552;48.120;-1.456;2024-02-21T10:00:28;19.65;;;9.35;;
16870;SDS011;8552;48.120;-1.456;2024-02-21T10:02:54;15.48;;;9.00;;
16870;SDS011;8552;48.120;-1.456;2024-02-21T10:05:20;20.67;;;8.98;;
16870;SDS011;8552;48.120;-1.456;2024-02-21T10:07:48;15.40;;;9.02;;
16870;SDS011;8552;48.120;-1.456;2024-02-21T10:10:14;14.50;;;8.48;;
16870;SDS011;8552;48.120;-1.456;2024-02-21T10:12:51;17.33;;;8.82;;
16870;SDS011;8552;48.120;-1.456;2024-02-21T10:15:22;20.23;;;9.40;;
16870;SDS011;8552;48.120;-1.456;2024-02-21T10:17:49;16.88;;;8.70;;
16870;SDS011;8552;48.120;-1.456;2024-02-21T10:20:15;16.35;;;9.70;;
16870;SDS011;8552;48.120;-1.456;2024-02-21T10:22:42;14.88;;;8.63;;
16870;SDS011;8552;48.120;-1.456;2024-02-21T10:25:08;13.30;;;8.15;;
16870;SDS011;8552;48.120;-1.456;2024-02-21T10:27:35;15.10;;;8.70;;
16870;SDS011;8552;48.120;-1.456;2024-02-21T10:30:01;20.17;;;9.00;;
16870;SDS011;8552;48.120;-1.456;2024-02-21T10:32:28;22.75;;;8.60;;
16870;SDS011;8552;48.120;-1.456;2024-02-21T10:35:02;22.27;;;9.52;;
16870;SDS011;8552;48.120;-1.456;2024-02-21T10:37:31;21.60;;;9.18;;
16870;SDS011;8552;48.120;-1.456;2024-02-21T10:39:57;20.00;;;8.07;;
16870;SDS011;8552;48.120;-1.456;2024-02-21T10:42:25;12.57;;;7.55;;
16870;SDS011;8552;48.120;-1.456;2024-02-21T10:44:55;20.50;;;9.18;;
16870;SDS011;8552;48.120;-1.456;2024-02-21T10:47:26;19.65;;;8.05;;
16870;SDS011;8552;48.120;-1.456;2024-02-21T10:49:57;12.82;;;8.00;;
16870;SDS011;8552;48.120;-1.456;2024-02-21T10:55:03;13.38;;;6.85;;
16870;SDS011;8552;48.120;-1.456;2024-02-21T10:57:31;15.35;;;7.82;;
16870;SDS011;8552;48.120;-1.456;2024-02-21T10:59:58;17.77;;;6.95;;
16870;SDS011;8552;48.120;-1.456;2024-02-21T11:02:24;13.63;;;7.70;;
16870;SDS011;8552;48.120;-1.456;2024-02-21T11:04:51;16.90;;;7.07;;
16870;SDS011;8552;48.120;-1.456;2024-02-21T11:07:19;15.45;;;6.82;;
16870;SDS011;8552;48.120;-1.456;2024-02-21T11:09:51;7.18;;;5.25;;
16870;SDS011;8552;48.120;-1.456;2024-02-21T11:12:21;11.20;;;6.13;;
16870;SDS011;8552;48.120;-1.456;2024-02-21T11:14:47;12.48;;;6.20;;
16870;SDS011;8552;48.120;-1.456;2024-02-21T11:17:17;6.38;;;5.32;;
16870;SDS011;8552;48.120;-1.456;2024-02-21T11:19:43;7.15;;;5.57;;
16870;SDS011;8552;48.120;-1.456;2024-02-21T11:22:18;14.57;;;5.95;;
16870;SDS011;8552;48.120;-1.456;2024-02-21T11:24:47;11.43;;;5.25;;
16870;SDS011;8552;48.120;-1.456;2024-02-21T11:27:20;11.85;;;6.28;;
16870;SDS011;8552;48.120;-1.456;2024-02-21T11:29:47;11.38;;;5.63;;
16870;SDS011;8552;48.120;-1.456;2024-02-21T11:32:14;10.52;;;6.47;;
16870;SDS011;8552;48.120;-1.456;2024-02-21T11:34:40;12.85;;;6.22;;
16870;SDS011;8552;48.120;-1.456;2024-02-21T11:37:13;11.95;;;6.85;;
16870;SDS011;8552;48.120;-1.456;2024-02-21T11:39:41;8.73;;;5.63;;
16870;SDS011;8552;48.120;-1.456;2024-02-21T11:42:08;17.30;;;6.82;;
16870;SDS011;8552;48.120;-1.456;2024-02-21T11:44:37;10.00;;;5.95;;
16870;SDS011;8552;48.120;-1.456;2024-02-21T11:47:05;18.08;;;7.55;;
16870;SDS011;8552;48.120;-1.456;2024-02-21T11:49:43;11.95;;;7.18;;
16870;SDS011;8552;48.120;-1.456;2024-02-21T11:52:10;14.27;;;6.40;;
16870;SDS011;8552;48.120;-1.456;2024-02-21T11:54:37;17.13;;;6.82;;
16870;SDS011;8552;48.120;-1.456;2024-02-21T11:57:03;9.88;;;5.85;;
16870;SDS011;8552;48.120;-1.456;2024-02-21T11:59:30;11.23;;;5.75;;
16870;SDS011;8552;48.120;-1.456;2024-02-21T12:01:59;9.88;;;5.40;;
16870;SDS011;8552;48.120;-1.456;2024-02-21T12:04:26;8.00;;;5.85;;
16870;SDS011;8552;48.120;-1.456;2024-02-21T12:06:52;11.15;;;5.68;;
16870;SDS011;8552;48.120;-1.456;2024-02-21T12:09:22;10.57;;;5.93;;
16870;SDS011;8552;48.120;-1.456;2024-02-21T12:11:56;8.45;;;4.55;;
16870;SDS011;8552;48.120;-1.456;2024-02-21T12:14:24;13.38;;;5.03;;
16870;SDS011;8552;48.120;-1.456;2024-02-21T12:16:50;6.38;;;4.13;;
16870;SDS011;8552;48.120;-1.456;2024-02-21T12:19:16;10.73;;;3.85;;
16870;SDS011;8552;48.120;-1.456;2024-02-21T12:21:43;8.55;;;4.05;;
16870;SDS011;8552;48.120;-1.456;2024-02-21T12:26:39;8.63;;;3.17;;
16870;SDS011;8552;48.120;-1.456;2024-02-21T12:29:05;9.20;;;3.90;;
16870;SDS011;8552;48.120;-1.456;2024-02-21T12:31:34;8.82;;;3.50;;
16870;SDS011;8552;48.120;-1.456;2024-02-21T12:34:00;8.25;;;2.75;;
16870;SDS011;8552;48.120;-1.456;2024-02-21T12:36:26;9.85;;;3.97;;
16870;SDS011;8552;48.120;-1.456;2024-02-21T12:38:53;6.50;;;3.25;;
16870;SDS011;8552;48.120;-1.456;2024-02-21T12:41:20;8.40;;;2.75;;
16870;SDS011;8552;48.120;-1.456;2024-02-21T12:43:50;10.38;;;3.60;;
16870;SDS011;8552;48.120;-1.456;2024-02-21T12:46:41;4.65;;;2.80;;
16870;SDS011;8552;48.120;-1.456;2024-02-21T12:49:10;11.27;;;2.95;;
16870;SDS011;8552;48.120;-1.456;2024-02-21T12:51:37;10.15;;;3.85;;
16870;SDS011;8552;48.120;-1.456;2024-02-21T12:54:28;9.32;;;3.50;;
16870;SDS011;8552;48.120;-1.456;2024-02-21T12:56:56;8.65;;;3.25;;
16870;SDS011;8552;48.120;-1.456;2024-02-21T12:59:22;7.45;;;3.22;;
16870;SDS011;8552;48.120;-1.456;2024-02-21T13:01:49;9.98;;;2.47;;
16870;SDS011;8552;48.120;-1.456;2024-02-21T13:04:20;4.72;;;2.25;;
16870;SDS011;8552;48.120;-1.456;2024-02-21T13:06:47;7.03;;;2.50;;
16870;SDS011;8552;48.120;-1.456;2024-02-21T13:09:15;8.43;;;2.70;;
16870;SDS011;8552;48.120;-1.456;2024-02-21T13:11:41;6.88;;;2.65;;
16870;SDS011;8552;48.120;-1.456;2024-02-21T13:14:10;9.02;;;2.70;;
16870;SDS011;8552;48.120;-1.456;2024-02-21T13:16:36;8.23;;;3.33;;
16870;SDS011;8552;48.120;-1.456;2024-02-21T13:19:04;5.63;;;3.13;;
16870;SDS011;8552;48.120;-1.456;2024-02-21T13:21:30;6.80;;;3.15;;
16870;SDS011;8552;48.120;-1.456;2024-02-21T13:23:56;6.00;;;3.00;;
16870;SDS011;8552;48.120;-1.456;2024-02-21T13:26:24;7.32;;;3.15;;
16870;SDS011;8552;48.120;-1.456;2024-02-21T13:28:58;9.55;;;3.22;;
16870;SDS011;8552;48.120;-1.456;2024-02-21T13:31:27;8.65;;;2.72;;
16870;SDS011;8552;48.120;-1.456;2024-02-21T13:33:54;11.63;;;3.00;;
16870;SDS011;8552;48.120;-1.456;2024-02-21T13:36:20;5.95;;;2.28;;
16870;SDS011;8552;48.120;-1.456;2024-02-21T13:38:46;9.85;;;2.80;;
16870;SDS011;8552;48.120;-1.456;2024-02-21T13:41:12;4.47;;;2.38;;
16870;SDS011;8552;48.120;-1.456;2024-02-21T13:43:41;8.65;;;3.28;;
16870;SDS011;8552;48.120;-1.456;2024-02-21T13:46:18;7.32;;;2.90;;
16870;SDS011;8552;48.120;-1.456;2024-02-21T13:48:48;12.32;;;3.47;;
16870;SDS011;8552;48.120;-1.456;2024-02-21T13:51:17;10.25;;;3.15;;
16870;SDS011;8552;48.120;-1.456;2024-02-21T13:53:50;13.25;;;3.30;;
16870;SDS011;8552;48.120;-1.456;2024-02-21T13:56:19;7.22;;;2.95;;
16870;SDS011;8552;48.120;-1.456;2024-02-21T13:58:48;10.05;;;3.58;;
16870;SDS011;8552;48.120;-1.456;2024-02-21T14:01:17;6.93;;;3.78;;
16870;SDS011;8552;48.120;-1.456;2024-02-21T14:03:45;10.70;;;3.65;;
16870;SDS011;8552;48.120;-1.456;2024-02-21T14:06:13;10.20;;;4.03;;
16870;SDS011;8552;48.120;-1.456;2024-02-21T14:08:43;8.35;;;3.80;;
16870;SDS011;8552;48.120;-1.456;2024-02-21T14:11:11;6.13;;;3.35;;
16870;SDS011;8552;48.120;-1.456;2024-02-21T14:13:41;6.80;;;3.78;;
16870;SDS011;8552;48.120;-1.456;2024-02-21T14:16:11;10.32;;;4.05;;
16870;SDS011;8552;48.120;-1.456;2024-02-21T14:18:42;10.45;;;4.18;;
16870;SDS011;8552;48.120;-1.456;2024-02-21T14:21:12;8.50;;;3.72;;
16870;SDS011;8552;48.120;-1.456;2024-02-21T14:23:45;6.95;;;3.22;;
16870;SDS011;8552;48.120;-1.456;2024-02-21T14:26:14;8.75;;;3.10;;
16870;SDS011;8552;48.120;-1.456;2024-02-21T14:28:48;9.38;;;3.60;;
16870;SDS011;8552;48.120;-1.456;2024-02-21T14:31:17;10.27;;;3.53;;
16870;SDS011;8552;48.120;-1.456;2024-02-21T14:33:46;7.40;;;3.10;;
16870;SDS011;8552;48.120;-1.456;2024-02-21T14:36:15;5.43;;;3.10;;
16870;SDS011;8552;48.120;-1.456;2024-02-21T14:38:43;9.60;;;4.13;;
16870;SDS011;8552;48.120;-1.456;2024-02-21T14:41:14;9.52;;;4.35;;
16870;SDS011;8552;48.120;-1.456;2024-02-21T14:43:47;10.98;;;4.30;;
16870;SDS011;8552;48.120;-1.456;2024-02-21T14:46:22;6.82;;;3.88;;
16870;SDS011;8552;48.120;-1.456;2024-02-21T14:48:51;12.10;;;3.60;;